sensor_id;sensor_type;location;lat;lon;timestamp;pressure;altitude;pressure_sealevel;temperature;humidity
44992;BME280;56865;51.618;7.406;2022-11-20T04:01:45;100370.19;;;2.11;100.00
44992;BME280;56865;51.618;7.406;2022-11-20T04:04:20;100372.22;;;2.17;100.00
44992;BME280;56865;51.618;7.406;2022-11-20T04:06:53;100367.69;;;2.11;100.00
44992;BME280;56865;51.618;7.406;2022-11-20T04:09:24;100374.66;;;2.15;100.00
44992;BME280;56865;51.618;7.406;2022-11-20T04:11:55;100370.38;;;2.29;100.00
44992;BME280;56865;51.618;7.406;2022-11-20T04:14:26;100357.19;;;2.33;100.00
44992;BME280;56865;51.618;7.406;2022-11-20T04:17:02;100363.28;;;2.07;100.00
44992;BME280;56865;51.618;7.406;2022-11-20T04:19:34;100363.97;;;2.04;100.00
44992;BME280;56865;51.618;7.406;2022-11-20T04:22:05;100361.88;;;2.27;100.00
44992;BME280;56865;51.618;7.406;2022-11-20T04:24:38;100358.78;;;1.86;100.00
44992;BME280;56865;51.618;7.406;2022-11-20T04:27:10;100348.53;;;1.83;100.00
44992;BME280;56865;51.618;7.406;2022-11-20T04:29:41;100358.81;;;2.33;100.00
44992;BME280;56865;51.618;7.406;2022-11-20T04:32:15;100361.81;;;2.25;100.00
44992;BME280;56865;51.618;7.406;2022-11-20T04:34:46;100356.78;;;2.25;100.00
44992;BME280;56865;51.618;7.406;2022-11-20T04:37:17;100350.97;;;1.97;100.00
44992;BME280;56865;51.618;7.406;2022-11-20T04:39:48;100353.06;;;1.89;100.00
44992;BME280;56865;51.618;7.406;2022-11-20T04:42:20;100359.44;;;1.99;100.00
44992;BME280;56865;51.618;7.406;2022-11-20T04:44:59;100354.63;;;2.17;100.00
44992;BME280;56865;51.618;7.406;2022-11-20T04:47:32;100358.09;;;2.04;100.00
44992;BME280;56865;51.618;7.406;2022-11-20T04:50:04;100355.31;;;1.99;100.00
44992;BME280;56865;51.618;7.406;2022-11-20T04:52:37;100359.81;;;1.75;100.00
44992;BME280;56865;51.618;7.406;2022-11-20T04:55:08;100360.41;;;2.01;100.00
44992;BME280;56865;51.618;7.406;2022-11-20T04:57:39;100352.88;;;1.86;100.00
44992;BME280;56865;51.618;7.406;2022-11-20T05:00:10;100357.19;;;1.88;100.00
44992;BME280;56865;51.618;7.406;2022-11-20T05:02:43;100355.34;;;1.71;100.00
44992;BME280;56865;51.618;7.406;2022-11-20T05:05:14;100363.09;;;1.74;100.00
44992;BME280;56865;51.618;7.406;2022-11-20T05:07:45;100360.97;;;1.52;100.00
44992;BME280;56865;51.618;7.406;2022-11-20T05:10:17;100366.50;;;1.61;100.00
44992;BME280;56865;51.618;7.406;2022-11-20T05:12:48;100362.78;;;1.54;100.00
44992;BME280;56865;51.618;7.406;2022-11-20T05:15:18;100366.28;;;1.71;100.00
44992;BME280;56865;51.618;7.406;2022-11-20T05:17:55;100366.25;;;1.56;100.00
44992;BME280;56865;51.618;7.406;2022-11-20T05:20:25;100362.19;;;1.43;100.00
44992;BME280;56865;51.618;7.406;2022-11-20T05:22:56;100365.84;;;1.64;100.00
44992;BME280;56865;51.618;7.406;2022-11-20T05:25:27;100366.03;;;1.67;100.00
44992;BME280;56865;51.618;7.406;2022-11-20T05:27:58;100363.91;;;1.59;100.00
44992;BME280;56865;51.618;7.406;2022-11-20T05:30:30;100358.09;;;1.45;100.00
44992;BME280;56865;51.618;7.406;2022-11-20T05:33:03;100361.91;;;1.39;100.00
44992;BME280;56865;51.618;7.406;2022-11-20T05:35:34;100354.34;;;1.39;100.00
44992;BME280;56865;51.618;7.406;2022-11-20T05:38:06;100351.69;;;1.51;100.00
44992;BME280;56865;51.618;7.406;2022-11-20T05:40:39;100358.66;;;1.55;100.00
44992;BME280;56865;51.618;7.406;2022-11-20T05:43:10;100355.28;;;1.69;100.00
44992;BME280;56865;51.618;7.406;2022-11-20T05:45:41;100367.44;;;1.76;100.00
44992;BME280;56865;51.618;7.406;2022-11-20T05:48:15;100359.91;;;1.91;100.00
44992;BME280;56865;51.618;7.406;2022-11-20T05:50:47;100353.56;;;1.83;100.00
44992;BME280;56865;51.618;7.406;2022-11-20T05:53:18;100359.72;;;1.88;100.00
44992;BME280;56865;51.618;7.406;2022-11-20T05:55:56;100355.56;;;1.74;100.00
44992;BME280;56865;51.618;7.406;2022-11-20T05:58:27;100357.19;;;1.88;100.00
44992;BME280;56865;51.618;7.406;2022-11-20T06:01:03;100363.78;;;2.01;100.00
44992;BME280;56865;51.618;7.406;2022-11-20T06:03:39;100361.38;;;2.03;100.00
44992;BME280;56865;51.618;7.406;2022-11-20T06:06:25;100358.38;;;2.40;100.00
44992;BME280;56865;51.618;7.406;2022-11-20T06:08:59;100353.97;;;2.51;100.00
44992;BME280;56865;51.618;7.406;2022-11-20T06:12:01;100348.69;;;2.31;100.00
44992;BME280;56865;51.618;7.406;2022-11-20T06:18:56;100350.34;;;2.77;100.00
44992;BME280;56865;51.618;7.406;2022-11-20T06:21:42;100348.16;;;2.83;100.00
44992;BME280;56865;51.618;7.406;2022-11-20T06:24:57;100355.03;;;2.71;100.00
44992;BME280;56865;51.618;7.406;2022-11-20T06:27:52;100346.53;;;2.69;100.00
44992;BME280;56865;51.618;7.406;2022-11-20T16:35:38;99796.47;;;7.89;100.00
44992;BME280;56865;51.618;7.406;2022-11-20T16:38:36;99791.97;;;7.77;100.00
44992;BME280;56865;51.618;7.406;2022-11-20T16:44:23;99797.72;;;7.38;100.00
44992;BME280;56865;51.618;7.406;2022-11-20T16:46:57;99798.56;;;7.37;100.00
44992;BME280;56865;51.618;7.406;2022-11-20T16:49:36;99789.50;;;7.47;100.00
44992;BME280;56865;51.618;7.406;2022-11-20T16:52:15;99797.19;;;7.48;100.00
44992;BME280;56865;51.618;7.406;2022-11-20T16:55:02;99788.19;;;7.61;100.00
44992;BME280;56865;51.618;7.406;2022-11-20T16:57:49;99779.53;;;7.53;100.00
44992;BME280;56865;51.618;7.406;2022-11-20T17:00:35;99790.88;;;7.34;100.00
44992;BME280;56865;51.618;7.406;2022-11-20T17:03:21;99791.31;;;7.19;100.00
44992;BME280;56865;51.618;7.406;2022-11-20T17:06:41;99781.72;;;7.39;100.00
44992;BME280;56865;51.618;7.406;2022-11-20T17:09:50;99785.53;;;7.57;100.00
44992;BME280;56865;51.618;7.406;2022-11-20T17:12:37;99783.47;;;7.42;100.00
44992;BME280;56865;51.618;7.406;2022-11-20T17:15:14;99774.97;;;7.40;100.00
44992;BME280;56865;51.618;7.406;2022-11-20T17:44:43;99709.00;;;7.03;100.00
44992;BME280;56865;51.618;7.406;2022-11-20T17:47:28;99705.34;;;6.92;100.00
44992;BME280;56865;51.618;7.406;2022-11-20T17:50:27;99703.84;;;7.00;100.00
44992;BME280;56865;51.618;7.406;2022-11-20T17:53:16;99689.44;;;6.99;100.00
44992;BME280;56865;51.618;7.406;2022-11-20T18:08:58;99663.63;;;7.12;100.00
44992;BME280;56865;51.618;7.406;2022-11-20T18:12:05;99659.41;;;7.13;100.00
44992;BME280;56865;51.618;7.406;2022-11-20T18:15:08;99640.06;;;7.16;100.00
44992;BME280;56865;51.618;7.406;2022-11-20T18:34:41;99606.78;;;7.39;100.00
44992;BME280;56865;51.618;7.406;2022-11-20T18:56:26;99546.44;;;7.23;100.00
44992;BME280;56865;51.618;7.406;2022-11-20T22:06:23;99501.78;;;7.69;100.00
44992;BME280;56865;51.618;7.406;2022-11-20T22:09:17;99502.44;;;7.59;100.00
44992;BME280;56865;51.618;7.406;2022-11-20T22:12:21;99503.81;;;7.86;100.00
44992;BME280;56865;51.618;7.406;2022-11-20T22:14:59;99518.84;;;7.76;100.00
44992;BME280;56865;51.618;7.406;2022-11-20T22:23:34;99524.69;;;7.72;100.00
44992;BME280;56865;51.618;7.406;2022-11-20T22:26:47;99519.38;;;7.60;100.00
44992;BME280;56865;51.618;7.406;2022-11-20T22:29:53;99524.75;;;7.75;100.00
44992;BME280;56865;51.618;7.406;2022-11-20T22:33:14;99532.66;;;7.49;100.00
